createdAt,value
2017-07-10T00:00:06.712Z,19.48
2017-07-10T00:00:47.279Z,19.48
2017-07-10T00:01:27.873Z,19.37
2017-07-10T00:02:08.443Z,19.45
2017-07-10T00:02:49.024Z,19.41
2017-07-10T00:03:29.606Z,19.45
2017-07-10T00:04:10.170Z,19.44
2017-07-10T00:04:50.744Z,19.41
2017-07-10T00:05:31.320Z,19.39
2017-07-10T00:06:11.909Z,19.44
2017-07-10T00:06:52.478Z,19.4
2017-07-10T00:07:33.052Z,19.36
2017-07-10T00:08:13.625Z,19.41
2017-07-10T00:08:54.185Z,19.4
2017-07-10T00:09:34.749Z,19.33
2017-07-10T00:10:15.358Z,19.41
2017-07-10T00:10:55.920Z,19.39
2017-07-10T00:11:36.508Z,19.36
2017-07-10T00:12:17.130Z,19.33
2017-07-10T00:12:57.709Z,19.4
2017-07-10T00:13:38.288Z,19.33
2017-07-10T00:14:18.886Z,19.31
2017-07-10T00:14:59.455Z,19.27
2017-07-10T00:15:40.039Z,19.29
2017-07-10T00:16:20.615Z,19.21
2017-07-10T00:17:01.183Z,19.26
2017-07-10T00:17:41.750Z,19.22
2017-07-10T00:18:22.317Z,19.24
2017-07-10T00:19:02.910Z,19.18
2017-07-10T00:19:43.473Z,19.19
2017-07-10T00:20:24.062Z,19.24
2017-07-10T00:21:04.654Z,19.22
2017-07-10T00:21:45.243Z,19.18
2017-07-10T00:22:25.884Z,19.15
2017-07-10T00:23:06.475Z,19.26
2017-07-10T00:23:47.072Z,19.22
2017-07-10T00:24:27.652Z,19.22
2017-07-10T00:25:08.220Z,19.21
2017-07-10T00:25:48.799Z,19.33
2017-07-10T00:26:29.430Z,19.22
2017-07-10T00:27:10.008Z,19.24
2017-07-10T00:27:50.576Z,19.29
2017-07-10T00:28:31.162Z,19.3
2017-07-10T00:29:11.726Z,19.27
2017-07-10T00:29:52.309Z,19.16
2017-07-10T00:30:32.982Z,19.21
2017-07-10T00:31:13.567Z,19.15
2017-07-10T00:31:54.159Z,19.19
2017-07-10T00:32:34.722Z,19.27
2017-07-10T00:33:22.169Z,19.18
2017-07-10T00:34:02.729Z,19.18
2017-07-10T00:34:43.324Z,19.22
2017-07-10T00:35:23.901Z,19.26
2017-07-10T00:36:04.479Z,19.15
2017-07-10T00:36:45.050Z,19.18
2017-07-10T00:37:25.672Z,19.18
2017-07-10T00:38:06.256Z,19.22
2017-07-10T00:38:46.834Z,19.21
2017-07-10T00:39:27.434Z,19.18
2017-07-10T00:40:07.997Z,19.14
2017-07-10T00:40:48.579Z,19.14
2017-07-10T00:41:29.211Z,19.14
2017-07-10T00:42:09.803Z,19.14
2017-07-10T00:42:50.376Z,19.11
2017-07-10T00:43:30.962Z,19.14
2017-07-10T00:44:11.562Z,19.16
2017-07-10T00:44:52.145Z,19.18
2017-07-10T00:45:32.720Z,19.14
2017-07-10T00:46:13.298Z,19.16
2017-07-10T00:46:53.877Z,19.14
2017-07-10T00:47:34.476Z,19.16
2017-07-10T00:48:15.157Z,19.08
2017-07-10T00:48:55.721Z,19.04
2017-07-10T00:49:36.292Z,19.07
2017-07-10T00:50:16.867Z,19.04
2017-07-10T00:50:57.455Z,19.04
2017-07-10T00:51:38.089Z,19.04
2017-07-10T00:52:18.690Z,19
2017-07-10T00:52:59.270Z,19.08
2017-07-10T00:53:39.854Z,19
2017-07-10T00:54:20.464Z,19.07
2017-07-10T00:55:01.042Z,19.11
2017-07-10T00:55:41.619Z,18.99
2017-07-10T00:56:22.208Z,18.96
2017-07-10T00:57:02.765Z,19.04
2017-07-10T00:57:43.334Z,19.07
2017-07-10T00:58:23.905Z,18.96
2017-07-10T00:59:04.552Z,19.02
2017-07-10T00:59:45.122Z,19.04
2017-07-10T01:00:25.691Z,18.92
2017-07-10T01:01:06.274Z,18.96
2017-07-10T01:01:46.867Z,18.92
2017-07-10T01:02:27.438Z,19.04
2017-07-10T01:03:07.997Z,18.92
2017-07-10T01:03:48.599Z,18.98
2017-07-10T01:04:29.168Z,18.92
2017-07-10T01:05:09.786Z,18.96
2017-07-10T01:05:50.350Z,18.92
2017-07-10T01:06:30.917Z,18.9
2017-07-10T01:07:11.509Z,18.92
2017-07-10T01:07:52.070Z,18.88
2017-07-10T01:08:32.648Z,18.89
2017-07-10T01:09:13.233Z,18.99
2017-07-10T01:09:53.805Z,18.9
2017-07-10T01:10:34.387Z,18.92
2017-07-10T01:11:15.011Z,18.89
2017-07-10T01:11:55.607Z,18.88
2017-07-10T01:12:36.186Z,18.93
2017-07-10T01:13:16.774Z,18.89
2017-07-10T01:13:57.352Z,18.89
2017-07-10T01:14:37.985Z,18.93
2017-07-10T01:15:18.581Z,18.92
2017-07-10T01:15:59.147Z,18.88
2017-07-10T01:16:39.753Z,18.95
2017-07-10T01:17:20.355Z,18.86
2017-07-10T01:18:00.962Z,18.81
2017-07-10T01:18:41.550Z,18.84
2017-07-10T01:19:22.158Z,18.81
2017-07-10T01:20:02.828Z,18.83
2017-07-10T01:20:43.489Z,18.86
2017-07-10T01:21:24.139Z,18.93
2017-07-10T01:22:04.755Z,18.93
2017-07-10T01:22:45.364Z,18.75
2017-07-10T01:23:25.976Z,18.83
2017-07-10T01:24:06.541Z,18.88
2017-07-10T01:24:47.096Z,18.8
2017-07-10T01:25:27.672Z,18.75
2017-07-10T01:26:08.343Z,18.78
2017-07-10T01:26:48.986Z,18.86
2017-07-10T01:27:29.573Z,18.75
2017-07-10T01:28:10.202Z,18.78
2017-07-10T01:28:50.812Z,18.73
2017-07-10T01:29:31.370Z,18.83
2017-07-10T01:30:11.942Z,18.81
2017-07-10T01:30:52.506Z,18.88
2017-07-10T01:31:33.100Z,18.77
2017-07-10T01:32:13.695Z,18.8
2017-07-10T01:32:54.324Z,18.75
2017-07-10T01:33:34.880Z,18.83
2017-07-10T01:34:15.518Z,18.86
2017-07-10T01:34:56.186Z,18.84
2017-07-10T01:35:36.750Z,18.78
2017-07-10T01:36:17.385Z,18.78
2017-07-10T01:36:57.976Z,18.75
2017-07-10T01:37:38.580Z,18.78
2017-07-10T01:38:19.146Z,18.78
2017-07-10T01:38:59.813Z,18.74
2017-07-10T01:39:40.442Z,18.74
2017-07-10T01:40:21.080Z,18.68
2017-07-10T01:41:01.663Z,18.74
2017-07-10T01:41:42.230Z,18.7
2017-07-10T01:42:22.848Z,18.68
2017-07-10T01:43:03.441Z,18.73
2017-07-10T01:43:44.033Z,18.7
2017-07-10T01:44:24.654Z,18.68
2017-07-10T01:45:05.232Z,18.68
2017-07-10T01:45:45.847Z,18.74
2017-07-10T01:46:26.417Z,18.71
2017-07-10T01:47:07.094Z,18.73
2017-07-10T01:47:47.682Z,18.65
2017-07-10T01:48:28.262Z,18.66
2017-07-10T01:49:08.857Z,18.62
2017-07-10T01:49:49.467Z,18.65
2017-07-10T01:50:30.057Z,18.58
2017-07-10T01:51:10.636Z,18.59
2017-07-10T01:51:51.226Z,18.58
2017-07-10T01:52:31.798Z,18.63
2017-07-10T01:53:12.380Z,18.53
2017-07-10T01:53:52.973Z,18.58
2017-07-10T01:54:33.562Z,18.6
2017-07-10T01:55:14.124Z,18.55
2017-07-10T01:55:54.709Z,18.55
2017-07-10T01:56:35.313Z,18.55
2017-07-10T01:57:15.888Z,18.52
2017-07-10T01:57:56.480Z,18.5
2017-07-10T01:58:37.097Z,18.47
2017-07-10T01:59:17.781Z,18.53
2017-07-10T01:59:58.374Z,18.53
2017-07-10T02:00:38.952Z,18.55
2017-07-10T02:01:19.539Z,18.53
2017-07-10T02:02:00.125Z,18.52
2017-07-10T02:02:40.701Z,18.53
2017-07-10T02:03:21.490Z,18.52
2017-07-10T02:04:02.062Z,18.52
2017-07-10T02:04:42.633Z,18.5
2017-07-10T02:05:23.227Z,18.5
2017-07-10T02:06:03.795Z,18.37
2017-07-10T02:06:44.394Z,18.55
2017-07-10T02:07:24.957Z,18.45
2017-07-10T02:08:05.556Z,18.4
2017-07-10T02:08:46.145Z,18.4
2017-07-10T02:09:26.723Z,18.52
2017-07-10T02:10:07.303Z,18.4
2017-07-10T02:10:47.899Z,18.43
2017-07-10T02:11:28.540Z,18.35
2017-07-10T02:12:09.155Z,18.43
2017-07-10T02:12:49.719Z,18.47
2017-07-10T02:13:30.294Z,18.35
2017-07-10T02:14:10.866Z,18.41
2017-07-10T02:14:51.436Z,18.41
2017-07-10T02:15:32.055Z,18.43
2017-07-10T02:16:12.743Z,18.44
2017-07-10T02:16:53.336Z,18.41
2017-07-10T02:17:33.912Z,18.4
2017-07-10T02:18:14.475Z,18.41
2017-07-10T02:18:55.048Z,18.45
2017-07-10T02:19:35.674Z,18.44
2017-07-10T02:20:16.249Z,18.4
2017-07-10T02:20:56.863Z,18.43
2017-07-10T02:21:37.538Z,18.44
2017-07-10T02:22:18.119Z,18.43
2017-07-10T02:22:58.695Z,18.43
2017-07-10T02:23:39.290Z,18.44
2017-07-10T02:24:19.934Z,18.47
2017-07-10T02:25:00.520Z,18.4
2017-07-10T02:25:41.157Z,18.49
2017-07-10T02:26:21.782Z,18.41
2017-07-10T02:27:02.372Z,18.43
2017-07-10T02:27:42.989Z,18.45
2017-07-10T02:28:23.559Z,18.43
2017-07-10T02:29:04.129Z,18.44
2017-07-10T02:29:44.735Z,18.45
2017-07-10T02:30:25.358Z,18.4
2017-07-10T02:31:06.006Z,18.45
2017-07-10T02:31:46.586Z,18.43
2017-07-10T02:32:27.161Z,18.43
2017-07-10T02:33:07.731Z,18.43
2017-07-10T02:33:48.329Z,18.47
2017-07-10T02:34:28.935Z,18.45
2017-07-10T02:35:09.560Z,18.43
2017-07-10T02:35:50.110Z,18.44
2017-07-10T02:36:30.677Z,18.47
2017-07-10T02:37:11.259Z,18.4
2017-07-10T02:37:51.852Z,18.4
2017-07-10T02:38:32.502Z,18.44
2017-07-10T02:39:13.081Z,18.44
2017-07-10T02:39:53.661Z,18.4
2017-07-10T02:40:34.263Z,18.47
2017-07-10T02:41:14.822Z,18.44
2017-07-10T02:41:55.410Z,18.45
2017-07-10T02:42:36.012Z,18.44
2017-07-10T02:43:16.600Z,18.41
2017-07-10T02:43:57.198Z,18.43
2017-07-10T02:44:37.780Z,18.44
2017-07-10T02:45:18.401Z,18.47
2017-07-10T02:45:58.976Z,18.43
2017-07-10T02:46:39.563Z,18.5
2017-07-10T02:47:20.157Z,18.52
2017-07-10T02:48:00.766Z,18.49
2017-07-10T02:48:41.366Z,18.47
2017-07-10T02:49:21.939Z,18.44
2017-07-10T02:50:02.515Z,18.45
2017-07-10T02:50:43.110Z,18.41
2017-07-10T02:51:23.678Z,18.44
2017-07-10T02:52:04.243Z,18.45
2017-07-10T02:52:44.804Z,18.43
2017-07-10T02:53:25.370Z,18.43
2017-07-10T02:54:06.003Z,18.41
2017-07-10T02:54:46.563Z,18.43
2017-07-10T02:55:27.166Z,18.47
2017-07-10T02:56:07.750Z,18.47
2017-07-10T02:56:48.330Z,18.47
2017-07-10T02:57:28.915Z,18.43
2017-07-10T02:58:09.492Z,18.43
2017-07-10T02:58:50.064Z,18.43
2017-07-10T02:59:30.642Z,18.45
2017-07-10T03:00:11.232Z,18.45
2017-07-10T03:00:51.816Z,18.4
2017-07-10T03:01:32.409Z,18.4
2017-07-10T03:02:13.041Z,18.43
2017-07-10T03:02:53.668Z,18.49
2017-07-10T03:03:34.263Z,18.56
2017-07-10T03:04:14.867Z,18.43
2017-07-10T03:04:55.432Z,18.49
2017-07-10T03:05:35.993Z,18.44
2017-07-10T03:06:16.655Z,18.4
2017-07-10T03:06:57.241Z,18.43
2017-07-10T03:07:37.824Z,18.4
2017-07-10T03:08:18.417Z,18.45
2017-07-10T03:08:58.995Z,18.43
2017-07-10T03:09:39.582Z,18.41
2017-07-10T03:10:20.178Z,18.41
2017-07-10T03:11:00.808Z,18.44
2017-07-10T03:11:41.380Z,18.41
2017-07-10T03:12:21.983Z,18.47
2017-07-10T03:13:02.571Z,18.41
2017-07-10T03:13:43.146Z,18.45
2017-07-10T03:14:23.730Z,18.45
2017-07-10T03:15:04.298Z,18.43
2017-07-10T03:15:44.877Z,18.4
2017-07-10T03:16:25.465Z,18.45
2017-07-10T03:17:06.048Z,18.47
2017-07-10T03:17:46.640Z,18.47
2017-07-10T03:18:27.213Z,18.52
2017-07-10T03:19:07.800Z,18.43
2017-07-10T03:19:48.403Z,18.45
2017-07-10T03:20:28.966Z,18.41
2017-07-10T03:21:09.570Z,18.44
2017-07-10T03:21:50.118Z,18.47
2017-07-10T03:22:30.674Z,18.4
2017-07-10T03:23:11.248Z,18.44
2017-07-10T03:23:51.825Z,18.44
2017-07-10T03:24:32.419Z,18.44
2017-07-10T03:25:13.006Z,18.44
2017-07-10T03:25:53.590Z,18.41
2017-07-10T03:26:34.161Z,18.43
2017-07-10T03:27:14.761Z,18.5
2017-07-10T03:27:55.333Z,18.4
2017-07-10T03:28:35.910Z,18.44
2017-07-10T03:29:16.497Z,18.4
2017-07-10T03:29:57.069Z,18.4
2017-07-10T03:30:37.683Z,18.43
2017-07-10T03:31:18.249Z,18.53
2017-07-10T03:31:58.819Z,18.43
2017-07-10T03:32:39.390Z,18.49
2017-07-10T03:33:19.958Z,18.44
2017-07-10T03:34:00.530Z,18.38
2017-07-10T03:34:41.123Z,18.43
2017-07-10T03:35:21.711Z,18.52
2017-07-10T03:36:02.288Z,18.47
2017-07-10T03:36:42.843Z,18.47
2017-07-10T03:37:23.417Z,18.49
2017-07-10T03:38:04.028Z,18.45
2017-07-10T03:38:44.544Z,18.43
2017-07-10T03:39:25.187Z,18.47
2017-07-10T03:40:05.757Z,18.49
2017-07-10T03:40:46.338Z,18.4
2017-07-10T03:41:26.964Z,18.43
2017-07-10T03:42:07.582Z,18.49
2017-07-10T03:42:48.183Z,18.47
2017-07-10T03:43:28.815Z,18.5
2017-07-10T03:44:09.399Z,18.5
2017-07-10T03:44:49.993Z,18.55
2017-07-10T03:45:30.586Z,18.56
2017-07-10T03:46:11.156Z,18.55
2017-07-10T03:46:51.731Z,18.65
2017-07-10T03:47:32.303Z,18.56
2017-07-10T03:48:12.868Z,18.5
2017-07-10T03:48:53.454Z,18.5
2017-07-10T03:49:34.069Z,18.55
2017-07-10T03:50:14.645Z,18.6
2017-07-10T03:50:55.247Z,18.56
2017-07-10T03:51:35.831Z,18.6
2017-07-10T03:52:16.423Z,18.58
2017-07-10T03:52:56.997Z,18.6
2017-07-10T03:53:37.612Z,18.58
2017-07-10T03:54:18.184Z,18.53
2017-07-10T03:54:58.747Z,18.68
2017-07-10T03:55:39.340Z,18.58
2017-07-10T03:56:19.916Z,18.66
2017-07-10T03:57:00.498Z,18.62
2017-07-10T03:57:41.112Z,18.6
2017-07-10T03:58:21.703Z,18.63
2017-07-10T03:59:02.273Z,18.65
2017-07-10T03:59:42.882Z,18.66
2017-07-10T04:00:23.542Z,18.66
2017-07-10T04:01:04.115Z,18.66
2017-07-10T04:01:44.696Z,18.68
2017-07-10T04:02:25.278Z,18.68
2017-07-10T04:03:05.841Z,18.63
2017-07-10T04:03:46.422Z,18.66
2017-07-10T04:04:27.031Z,18.68
2017-07-10T04:05:07.642Z,18.66
2017-07-10T04:05:48.243Z,18.68
2017-07-10T04:06:28.826Z,18.63
2017-07-10T04:07:09.412Z,18.66
2017-07-10T04:07:49.994Z,18.65
2017-07-10T04:08:30.556Z,18.68
2017-07-10T04:09:11.129Z,18.62
2017-07-10T04:09:51.726Z,18.71
2017-07-10T04:10:32.296Z,18.73
2017-07-10T04:11:13.001Z,18.74
2017-07-10T04:11:53.601Z,18.65
2017-07-10T04:12:34.187Z,18.66
2017-07-10T04:13:14.810Z,18.78
2017-07-10T04:13:55.420Z,18.74
2017-07-10T04:14:36.009Z,18.75
2017-07-10T04:15:16.634Z,18.71
2017-07-10T04:15:57.454Z,18.73
2017-07-10T04:16:38.021Z,18.7
2017-07-10T04:17:18.593Z,18.74
2017-07-10T04:17:59.171Z,18.74
2017-07-10T04:18:39.758Z,18.75
2017-07-10T04:19:20.346Z,18.77
2017-07-10T04:20:01.004Z,18.7
2017-07-10T04:20:41.575Z,18.75
2017-07-10T04:21:22.168Z,18.84
2017-07-10T04:22:02.747Z,18.8
2017-07-10T04:22:43.332Z,18.83
2017-07-10T04:23:23.890Z,18.8
2017-07-10T04:24:04.467Z,18.8
2017-07-10T04:24:45.047Z,18.88
2017-07-10T04:25:25.611Z,18.86
2017-07-10T04:26:06.188Z,18.73
2017-07-10T04:26:46.768Z,18.77
2017-07-10T04:27:27.368Z,18.74
2017-07-10T04:28:07.946Z,18.74
2017-07-10T04:28:48.527Z,18.77
2017-07-10T04:29:29.112Z,18.84
2017-07-10T04:30:09.682Z,18.84
2017-07-10T04:30:50.249Z,18.8
2017-07-10T04:31:30.812Z,18.88
2017-07-10T04:32:11.416Z,18.88
2017-07-10T04:32:51.979Z,18.89
2017-07-10T04:33:32.547Z,18.92
2017-07-10T04:34:13.274Z,18.86
2017-07-10T04:34:53.865Z,18.86
2017-07-10T04:35:34.462Z,18.96
2017-07-10T04:36:15.098Z,18.88
2017-07-10T04:36:55.894Z,18.93
2017-07-10T04:37:36.954Z,18.92
2017-07-10T04:38:17.548Z,19.04
2017-07-10T04:38:58.126Z,19.02
2017-07-10T04:39:38.707Z,18.9
2017-07-10T04:40:19.274Z,18.96
2017-07-10T04:40:59.872Z,18.99
2017-07-10T04:41:40.469Z,18.99
2017-07-10T04:42:21.041Z,18.95
2017-07-10T04:43:01.618Z,18.92
2017-07-10T04:43:42.269Z,18.99
2017-07-10T04:44:22.820Z,18.98
2017-07-10T04:45:03.408Z,18.95
2017-07-10T04:45:44.006Z,19
2017-07-10T04:46:24.700Z,18.96
2017-07-10T04:47:05.264Z,18.9
2017-07-10T04:47:45.869Z,18.98
2017-07-10T04:48:26.436Z,19
2017-07-10T04:49:07.022Z,18.99
2017-07-10T04:49:47.601Z,19.11
2017-07-10T04:50:28.477Z,19.15
2017-07-10T04:51:09.042Z,19
2017-07-10T04:51:49.615Z,18.99
2017-07-10T04:52:30.366Z,19.04
2017-07-10T04:53:10.964Z,19.07
2017-07-10T04:53:51.538Z,19.04
2017-07-10T04:54:32.125Z,19.16
2017-07-10T04:55:12.738Z,19.08
2017-07-10T04:55:53.299Z,19.14
2017-07-10T04:56:33.884Z,19.11
2017-07-10T04:57:14.475Z,19.16
2017-07-10T04:57:55.102Z,19.15
2017-07-10T04:58:35.683Z,19.14
2017-07-10T04:59:16.302Z,19.18
2017-07-10T04:59:56.909Z,19.22
2017-07-10T05:00:37.495Z,19.18
2017-07-10T05:01:18.090Z,19.26
2017-07-10T05:01:58.657Z,19.33
2017-07-10T05:02:39.252Z,19.24
2017-07-10T05:03:20.021Z,19.26
2017-07-10T05:04:00.599Z,19.3
2017-07-10T05:04:41.230Z,19.18
2017-07-10T05:05:21.803Z,19.39
2017-07-10T05:06:02.394Z,19.26
2017-07-10T05:06:43.000Z,19.3
2017-07-10T05:07:23.574Z,19.34
2017-07-10T05:08:04.146Z,19.41
2017-07-10T05:08:44.737Z,19.49
2017-07-10T05:09:25.353Z,19.41
2017-07-10T05:10:05.937Z,19.37
2017-07-10T05:10:46.509Z,19.49
2017-07-10T05:11:27.098Z,19.51
2017-07-10T05:12:07.682Z,19.55
2017-07-10T05:12:48.267Z,19.58
2017-07-10T05:13:28.845Z,19.55
2017-07-10T05:14:09.430Z,19.58
2017-07-10T05:14:50.016Z,19.55
2017-07-10T05:15:30.639Z,19.58
2017-07-10T05:16:11.227Z,19.56
2017-07-10T05:16:51.813Z,19.66
2017-07-10T05:17:32.434Z,19.62
2017-07-10T05:18:13.061Z,19.67
2017-07-10T05:18:53.631Z,19.59
2017-07-10T05:19:34.230Z,19.66
2017-07-10T05:20:14.814Z,19.66
2017-07-10T05:20:55.406Z,19.7
2017-07-10T05:21:35.987Z,19.74
2017-07-10T05:22:16.558Z,19.74
2017-07-10T05:22:57.175Z,19.74
2017-07-10T05:23:37.788Z,19.7
2017-07-10T05:24:18.378Z,19.7
2017-07-10T05:24:58.991Z,19.71
2017-07-10T05:25:39.584Z,19.76
2017-07-10T05:26:20.194Z,19.76
2017-07-10T05:27:00.788Z,19.82
2017-07-10T05:27:41.354Z,19.84
2017-07-10T05:28:21.949Z,19.82
2017-07-10T05:29:02.578Z,19.81
2017-07-10T05:29:43.150Z,19.71
2017-07-10T05:30:23.766Z,19.88
2017-07-10T05:31:04.434Z,19.91
2017-07-10T05:31:45.032Z,19.94
2017-07-10T05:32:25.595Z,19.86
2017-07-10T05:33:06.217Z,19.86
2017-07-10T05:33:46.804Z,19.92
2017-07-10T05:34:27.399Z,19.96
2017-07-10T05:35:07.977Z,19.96
2017-07-10T05:35:48.551Z,19.99
2017-07-10T05:36:29.168Z,19.92
2017-07-10T05:37:09.744Z,19.89
2017-07-10T05:37:50.333Z,19.99
2017-07-10T05:38:30.920Z,19.89
2017-07-10T05:39:11.493Z,19.95
2017-07-10T05:39:52.076Z,19.91
2017-07-10T05:40:32.646Z,19.95
2017-07-10T05:41:13.227Z,20.02
2017-07-10T05:41:53.789Z,19.94
2017-07-10T05:42:34.363Z,19.95
2017-07-10T05:43:14.943Z,19.94
2017-07-10T05:43:55.523Z,19.96
2017-07-10T05:44:36.098Z,20.11
2017-07-10T05:45:16.753Z,20.02
2017-07-10T05:45:57.288Z,20.09
2017-07-10T05:46:37.900Z,20.18
2017-07-10T05:47:18.687Z,20.14
2017-07-10T05:47:59.508Z,20.24
2017-07-10T05:48:40.409Z,20.28
2017-07-10T05:49:21.206Z,20.34
2017-07-10T05:50:02.096Z,20.51
2017-07-10T05:50:42.937Z,20.51
2017-07-10T05:51:23.588Z,20.55
2017-07-10T05:52:04.720Z,20.69
2017-07-10T05:52:45.554Z,20.66
2017-07-10T05:53:26.255Z,20.81
2017-07-10T05:54:07.241Z,20.9
2017-07-10T05:54:48.339Z,20.96
2017-07-10T05:55:28.947Z,21
2017-07-10T05:56:09.542Z,21.02
2017-07-10T05:56:52.512Z,21.02
2017-07-10T05:57:36.611Z,21.17
2017-07-10T05:58:18.088Z,21.14
2017-07-10T05:59:03.268Z,21.2
2017-07-10T05:59:44.399Z,21.15
2017-07-10T06:00:25.909Z,21.2
2017-07-10T06:01:07.252Z,21.09
2017-07-10T06:01:47.890Z,21.05
2017-07-10T06:02:28.513Z,21.12
2017-07-10T06:03:09.092Z,21.12
2017-07-10T06:03:49.715Z,20.99
2017-07-10T06:04:30.315Z,20.95
2017-07-10T06:05:10.889Z,20.84
2017-07-10T06:05:51.451Z,20.81
2017-07-10T06:06:32.041Z,20.81
2017-07-10T06:07:12.610Z,20.78
2017-07-10T06:07:53.189Z,20.75
2017-07-10T06:08:33.756Z,20.77
2017-07-10T06:09:14.330Z,20.7
2017-07-10T06:09:54.903Z,20.72
2017-07-10T06:10:35.556Z,20.78
2017-07-10T06:11:16.133Z,20.7
2017-07-10T06:11:56.712Z,20.74
2017-07-10T06:12:37.299Z,20.67
2017-07-10T06:13:17.907Z,20.78
2017-07-10T06:13:58.524Z,20.77
2017-07-10T06:14:39.079Z,20.75
2017-07-10T06:15:19.696Z,20.75
2017-07-10T06:16:00.260Z,20.69
2017-07-10T06:16:40.848Z,20.7
2017-07-10T06:17:21.433Z,20.77
2017-07-10T06:18:02.014Z,20.81
2017-07-10T06:18:42.591Z,20.81
2017-07-10T06:19:23.155Z,20.77
2017-07-10T06:20:03.779Z,20.8
2017-07-10T06:20:44.342Z,20.77
2017-07-10T06:21:24.908Z,20.88
2017-07-10T06:22:05.474Z,20.85
2017-07-10T06:22:46.071Z,20.82
2017-07-10T06:23:26.740Z,20.97
2017-07-10T06:24:07.312Z,21.09
2017-07-10T06:24:47.910Z,20.97
2017-07-10T06:25:28.477Z,21.09
2017-07-10T06:26:09.054Z,21.14
2017-07-10T06:26:49.627Z,21.15
2017-07-10T06:27:30.189Z,21.17
2017-07-10T06:28:10.768Z,21.25
2017-07-10T06:28:51.336Z,21.32
2017-07-10T06:29:31.911Z,21.39
2017-07-10T06:30:12.477Z,21.48
2017-07-10T06:30:53.078Z,21.46
2017-07-10T06:31:33.643Z,21.48
2017-07-10T06:32:14.216Z,21.46
2017-07-10T06:32:54.823Z,21.46
2017-07-10T06:33:35.389Z,21.51
2017-07-10T06:34:15.974Z,21.6
2017-07-10T06:34:56.561Z,21.6
2017-07-10T06:35:37.133Z,21.57
2017-07-10T06:36:17.855Z,21.46
2017-07-10T06:36:58.451Z,21.66
2017-07-10T06:37:39.023Z,21.51
2017-07-10T06:38:19.637Z,21.62
2017-07-10T06:39:00.230Z,21.52
2017-07-10T06:39:40.819Z,21.61
2017-07-10T06:40:21.390Z,21.6
2017-07-10T06:41:01.962Z,21.54
2017-07-10T06:41:42.543Z,21.6
2017-07-10T06:42:23.136Z,21.62
2017-07-10T06:43:03.710Z,21.61
2017-07-10T06:43:44.293Z,21.7
2017-07-10T06:44:24.855Z,21.66
2017-07-10T06:45:05.458Z,21.66
2017-07-10T06:45:46.035Z,21.64
2017-07-10T06:46:26.629Z,21.67
2017-07-10T06:47:07.231Z,21.7
2017-07-10T06:47:47.799Z,21.66
2017-07-10T06:48:28.380Z,21.48
2017-07-10T06:49:08.946Z,21.61
2017-07-10T06:49:49.513Z,21.62
2017-07-10T06:50:30.084Z,21.5
2017-07-10T06:51:10.668Z,21.6
2017-07-10T06:51:51.275Z,21.52
2017-07-10T06:52:31.852Z,21.51
2017-07-10T06:53:12.438Z,21.5
2017-07-10T06:53:53.028Z,21.39
2017-07-10T06:54:33.616Z,21.4
2017-07-10T06:55:14.189Z,21.33
2017-07-10T06:55:54.783Z,21.36
2017-07-10T06:56:35.347Z,21.3
2017-07-10T06:57:15.947Z,21.25
2017-07-10T06:57:56.528Z,21.25
2017-07-10T06:58:37.113Z,21.21
2017-07-10T06:59:17.681Z,21.14
2017-07-10T06:59:58.354Z,21.17
2017-07-10T07:00:38.928Z,21.14
2017-07-10T07:01:19.522Z,21.21
2017-07-10T07:02:00.105Z,21.24
2017-07-10T07:02:40.794Z,21.14
2017-07-10T07:03:21.360Z,21.22
2017-07-10T07:04:01.926Z,21.22
2017-07-10T07:04:42.504Z,21.2
2017-07-10T07:05:23.064Z,21.2
2017-07-10T07:06:03.685Z,21.09
2017-07-10T07:06:44.268Z,21.18
2017-07-10T07:07:24.849Z,21.17
2017-07-10T07:08:05.429Z,21.11
2017-07-10T07:08:46.008Z,21.18
2017-07-10T07:09:27.014Z,21.09
2017-07-10T07:10:07.465Z,21.09
2017-07-10T07:10:48.042Z,21.05
2017-07-10T07:11:28.636Z,21.14
2017-07-10T07:12:09.366Z,21.15
2017-07-10T07:12:49.972Z,21.12
2017-07-10T07:13:30.561Z,21.09
2017-07-10T07:14:11.129Z,21.07
2017-07-10T07:14:51.713Z,21.11
2017-07-10T07:15:32.321Z,21.02
2017-07-10T07:16:12.897Z,21
2017-07-10T07:16:53.473Z,21.14
2017-07-10T07:17:34.132Z,21.11
2017-07-10T07:18:14.684Z,21.11
2017-07-10T07:18:55.252Z,21.02
2017-07-10T07:19:35.817Z,21.14
2017-07-10T07:20:16.398Z,21.09
2017-07-10T07:20:56.965Z,21.15
2017-07-10T07:21:37.552Z,21.14
2017-07-10T07:22:18.123Z,21.09
2017-07-10T07:22:58.709Z,21.11
2017-07-10T07:23:39.300Z,21.09
2017-07-10T07:24:19.869Z,21.09
2017-07-10T07:25:00.442Z,21.18
2017-07-10T07:25:41.035Z,21.12
2017-07-10T07:26:21.611Z,21.05
2017-07-10T07:27:02.199Z,21.21
2017-07-10T07:27:42.794Z,21.15
2017-07-10T07:28:23.364Z,21.15
2017-07-10T07:29:03.934Z,21.22
2017-07-10T07:29:44.508Z,21.18
2017-07-10T07:30:25.076Z,21.21
2017-07-10T07:31:05.650Z,21.18
2017-07-10T07:31:46.221Z,21.25
2017-07-10T07:32:26.790Z,21.25
2017-07-10T07:33:07.371Z,21.2
2017-07-10T07:33:47.950Z,21.21
2017-07-10T07:34:28.558Z,21.18
2017-07-10T07:35:09.134Z,21.17
2017-07-10T07:35:49.731Z,21.27
2017-07-10T07:36:30.312Z,21.18
2017-07-10T07:37:10.887Z,21.21
2017-07-10T07:37:51.462Z,21.24
2017-07-10T07:38:32.032Z,21.17
2017-07-10T07:39:12.603Z,21.15
2017-07-10T07:39:53.174Z,21.22
2017-07-10T07:40:33.768Z,21.22
2017-07-10T07:41:14.334Z,21.2
2017-07-10T07:41:54.906Z,21.17
2017-07-10T07:42:35.476Z,21.17
2017-07-10T07:43:16.070Z,21.15
2017-07-10T07:43:56.635Z,21.21
2017-07-10T07:44:37.211Z,21.14
2017-07-10T07:45:17.804Z,21.07
2017-07-10T07:45:58.373Z,21.15
2017-07-10T07:46:38.968Z,21.05
2017-07-10T07:47:19.546Z,21.07
2017-07-10T07:48:00.104Z,21.09
2017-07-10T07:48:40.689Z,21.07
2017-07-10T07:49:21.282Z,21.17
2017-07-10T07:50:01.857Z,21.09
2017-07-10T07:50:42.428Z,21.09
2017-07-10T07:51:23.027Z,21.09
2017-07-10T07:52:03.597Z,21.12
2017-07-10T07:52:44.180Z,21.11
2017-07-10T07:53:24.759Z,21.09
2017-07-10T07:54:05.328Z,21.12
2017-07-10T07:54:45.899Z,21.24
2017-07-10T07:55:26.469Z,21.06
2017-07-10T07:56:07.045Z,21.03
2017-07-10T07:56:47.633Z,21.17
2017-07-10T07:57:28.241Z,21.07
2017-07-10T07:58:08.846Z,21.12
2017-07-10T07:58:49.404Z,21.07
2017-07-10T07:59:29.974Z,21.07
2017-07-10T08:00:10.553Z,21.17
2017-07-10T08:00:51.136Z,21.15
2017-07-10T08:01:31.693Z,21.07
2017-07-10T08:02:12.259Z,21.09
2017-07-10T08:02:52.826Z,21.12
2017-07-10T08:03:33.413Z,21.09
2017-07-10T08:04:13.963Z,21.12
2017-07-10T08:04:54.547Z,21.15
2017-07-10T08:05:35.117Z,21.12
2017-07-10T08:06:15.703Z,21.12
2017-07-10T08:06:56.275Z,21.14
2017-07-10T08:07:36.890Z,21.09
2017-07-10T08:08:17.473Z,21.22
2017-07-10T08:08:58.045Z,21.11
2017-07-10T08:09:38.627Z,21.15
2017-07-10T08:10:19.235Z,21.09
2017-07-10T08:10:59.827Z,21.17
2017-07-10T08:11:40.447Z,21.12
2017-07-10T08:12:21.047Z,21.11
2017-07-10T08:13:01.618Z,21.15
2017-07-10T08:13:42.197Z,21.12
2017-07-10T08:14:22.764Z,21.12
2017-07-10T08:15:03.377Z,21.12
2017-07-10T08:15:43.947Z,20.99
2017-07-10T08:16:24.539Z,21.12
2017-07-10T08:17:05.156Z,21.12
2017-07-10T08:17:45.741Z,21.02
2017-07-10T08:18:26.311Z,21.03
2017-07-10T08:19:06.882Z,21.11
2017-07-10T08:19:47.456Z,21.03
2017-07-10T08:20:28.026Z,21.09
2017-07-10T08:21:08.594Z,21.03
2017-07-10T08:21:50.046Z,21
2017-07-10T08:22:30.637Z,21.07
2017-07-10T08:23:11.227Z,21.03
2017-07-10T08:23:51.805Z,21.09
2017-07-10T08:24:32.377Z,21.05
2017-07-10T08:25:12.944Z,21.11
2017-07-10T08:25:53.520Z,20.9
2017-07-10T08:26:34.110Z,20.99
2017-07-10T08:27:14.674Z,21
2017-07-10T08:27:55.284Z,20.97
2017-07-10T08:28:35.918Z,20.95
2017-07-10T08:29:16.502Z,20.88
2017-07-10T08:29:57.079Z,20.85
2017-07-10T08:30:37.708Z,20.92
2017-07-10T08:31:18.309Z,20.82
2017-07-10T08:31:59.972Z,20.93
2017-07-10T08:32:40.559Z,20.9
2017-07-10T08:33:21.169Z,20.9
2017-07-10T08:34:02.141Z,20.92
2017-07-10T08:34:42.725Z,20.85
2017-07-10T08:35:23.316Z,20.84
2017-07-10T08:36:03.898Z,20.85
2017-07-10T08:36:44.467Z,20.82
2017-07-10T08:37:25.075Z,20.82
2017-07-10T08:38:05.708Z,20.82
2017-07-10T08:38:46.285Z,20.81
2017-07-10T08:39:26.863Z,20.8
2017-07-10T08:40:07.538Z,20.74
2017-07-10T08:40:48.106Z,20.77
2017-07-10T08:41:28.683Z,20.75
2017-07-10T08:42:09.250Z,20.74
2017-07-10T08:42:49.844Z,20.7
2017-07-10T08:43:30.423Z,20.69
2017-07-10T08:44:11.832Z,20.66
2017-07-10T08:44:52.443Z,20.66
2017-07-10T08:45:33.030Z,20.7